メインページ
METAR-TAF:

METAR-TAF

空港 :

サンフアン, プエルトリコ, アメリカ合衆国

ルイス・ムニョス・マリン国際空港

緯度: 18-27N, 経度: 066-00W, 海抜: 3m

現時点の気象観測

当レポートは38分前の00:56(UTC)に作成
東/南東の風 7kt
気温 27°C
湿度 84%
気圧 1015 hPa
視程: 16.1km
高度2600ftの雲はほとんどない
高度3700ftの雲は散在している
高度5000ftの雲は散在している

METAR: TJSJ 240056Z 11007KT 10SM FEW026 SCT037 SCT050 27/24 A2997 RMK AO2 RAE54 SLP149 VCSH SE P0000 T02670244

時間: 21:34 (01:34 UTC)

予報

当レポートは2時間12分前の23:22(UTC)に作成
予報は24日の 00時(UTC)から 24日の 24時(UTC)まで有効
変向風 3kt
視程: 10km
高度2200ftの雲はほとんどない
高度3500ftの雲は散在している
高度5000ftの千切れ雲あり
近辺でにわか雨
24日の 0630時(UTC)から
東/南東の風 4kt
視程: 10km
高度2500ftの雲は散在している
高度5000ftの千切れ雲あり
近辺でにわか雨
24日の 1450時(UTC)から
の風 12kt
視程: 10km
高度3000ftの雲は散在している
高度6000ftの千切れ雲あり
高度10000ftの千切れ雲あり
24日の 2230時(UTC)から
の風 10kt
視程: 10km
高度3000ftの雲はほとんどない
高度6000ftの雲は散在している
高度10000ftの雲は散在している

TAF: TJSJ 232322Z 2400/2424 VRB03KT P6SM VCSH FEW022 SCT035 BKN050 FM240630 12004KT P6SM VCSH SCT025 BKN050 FM241450 10012KT P6SM SCT030 BKN060 BKN100 FM242230 09010KT P6SM FEW030 SCT060 SCT100

4,000以上の空港の気象観測と天気予報(METAR報とTAF報)

利用可能な観測所は地図上に黄色い丸と赤い丸で示す。

丸の上にカーソルを重ねると観測所名を参照できる。

次にクリックすると気象観測と天気予報を参照できる。

マップの切り替え:黒色「×」印の緑ボタンをクリックして拡大、「-」印の緑ボタンをクリックして縮小、緑色の三角印をクリックして隣りの地図に切り替え


METAR-TAF: